Time;durP1;ratioP1;P1;durP2;ratioP2;P2;SDS_P1;SDS_P2;PMS_P1;PMS_P2;Temp;Humidity;BMP_temperature;BMP_pressure;BME280_temperature;BME280_humidity;BME280_pressure;Samples;Min_cycle;Max_cycle;Signal;HPM_P1;HPM_P2
2023/10/03 00:00:34;;;;;;;26.40;17.38;;;;;;;15.29;100.00;93419.22;5015330;28;20080;-79
2023/10/03 00:03:00;;;;;;;26.45;18.52;;;;;;;15.27;100.00;93419.53;5015204;28;20042;-81
2023/10/03 00:05:28;;;;;;;26.25;17.95;;;;;;;15.27;100.00;93413.50;5014341;28;20512;-80
2023/10/03 00:07:55;;;;;;;26.55;17.38;;;;;;;15.26;100.00;93410.03;5015262;28;20038;-80
2023/10/03 00:10:21;;;;;;;25.45;17.40;;;;;;;15.26;100.00;93417.97;5015234;28;20104;-80
2023/10/03 00:12:51;;;;;;;25.88;17.35;;;;;;;15.26;100.00;93417.19;5029153;28;20044;-79
2023/10/03 00:15:19;;;;;;;26.38;17.67;;;;;;;15.22;100.00;93410.91;5019894;28;20045;-80
2023/10/03 00:17:45;;;;;;;27.73;17.80;;;;;;;15.23;100.00;93408.00;5014456;28;20053;-79
2023/10/03 00:20:16;;;;;;;30.25;18.23;;;;;;;15.24;100.00;93412.19;5013325;28;20073;-80
2023/10/03 00:22:49;;;;;;;31.92;18.42;;;;;;;15.20;100.00;93408.59;5014925;28;20032;-79
2023/10/03 00:25:18;;;;;;;27.27;17.90;;;;;;;15.16;100.00;93394.44;5014545;28;20056;-79
2023/10/03 00:27:52;;;;;;;26.05;18.20;;;;;;;15.13;100.00;93395.78;5013334;28;20037;-81
2023/10/03 00:30:26;;;;;;;25.35;17.42;;;;;;;15.11;100.00;93395.31;5028595;28;20513;-80
2023/10/03 00:33:02;;;;;;;27.30;17.42;;;;;;;15.05;100.00;93393.81;5012966;28;20120;-81
2023/10/03 00:35:28;;;;;;;25.55;17.02;;;;;;;15.04;100.00;93392.28;5013880;28;20654;-81
2023/10/03 00:37:54;;;;;;;25.02;18.25;;;;;;;15.01;100.00;93390.19;5014720;28;20041;-80
2023/10/03 00:42:53;;;;;;;26.38;18.50;;;;;;;14.96;100.00;93390.28;5013866;28;20033;-80
2023/10/03 00:45:21;;;;;;;27.02;18.88;;;;;;;14.96;100.00;93391.06;5011832;28;20068;-81
2023/10/03 00:47:48;;;;;;;29.50;19.00;;;;;;;14.95;100.00;93391.34;5013191;28;20045;-78
2023/10/03 00:50:16;;;;;;;36.72;20.83;;;;;;;14.94;100.00;93387.16;5011981;28;20037;-81
2023/10/03 00:52:45;;;;;;;30.67;19.95;;;;;;;14.93;100.00;93388.25;4996901;28;20466;-80
2023/10/03 00:55:11;;;;;;;31.13;20.42;;;;;;;14.91;100.00;93385.13;5012462;28;20092;-81
2023/10/03 00:57:37;;;;;;;31.00;21.00;;;;;;;14.91;100.00;93378.00;5029444;28;20108;-80
2023/10/03 01:00:16;;;;;;;28.23;19.98;;;;;;;14.90;100.00;93383.53;5014138;28;20030;-80
2023/10/03 01:02:50;;;;;;;28.98;20.52;;;;;;;14.91;100.00;93380.63;5028198;28;20444;-79
2023/10/03 01:05:16;;;;;;;27.80;21.15;;;;;;;14.88;100.00;93369.88;5012569;28;20038;-81
2023/10/03 01:07:45;;;;;;;29.33;20.42;;;;;;;14.86;100.00;93366.75;5013747;28;20122;-81
2023/10/03 01:10:17;;;;;;;31.80;21.08;;;;;;;14.87;100.00;93363.03;5013831;28;20041;-81
2023/10/03 01:12:44;;;;;;;32.63;21.92;;;;;;;14.88;100.00;93367.22;5013896;28;20040;-81
2023/10/03 01:15:24;;;;;;;36.17;22.63;;;;;;;14.86;100.00;93367.53;5012076;28;20038;-80
2023/10/03 01:17:53;;;;;;;29.90;21.48;;;;;;;14.87;100.00;93368.31;5017483;28;20045;-80
2023/10/03 01:20:40;;;;;;;29.65;21.58;;;;;;;14.86;100.00;93356.19;5033545;28;20481;-79
2023/10/03 01:23:12;;;;;;;31.38;21.38;;;;;;;14.85;100.00;93359.91;5014098;28;20042;-80
2023/10/03 01:25:44;;;;;;;32.17;21.17;;;;;;;14.85;100.00;93359.91;5016565;28;20579;-80
2023/10/03 01:28:13;;;;;;;33.80;21.65;;;;;;;14.84;100.00;93359.16;5013908;28;20029;-80
2023/10/03 01:30:43;;;;;;;32.88;22.27;;;;;;;14.83;100.00;93349.66;5017325;28;20033;-80
2023/10/03 01:33:10;;;;;;;31.02;21.67;;;;;;;14.83;100.00;93351.50;5024270;28;20596;-80
2023/10/03 01:35:36;;;;;;;33.38;22.90;;;;;;;14.81;100.00;93351.03;5017591;28;20385;-79
2023/10/03 01:38:04;;;;;;;33.50;22.65;;;;;;;14.82;100.00;93344.69;5008637;28;20055;-79
2023/10/03 01:40:30;;;;;;;30.95;21.90;;;;;;;14.81;100.00;93349.16;5009842;28;20145;-80
2023/10/03 01:42:57;;;;;;;33.35;22.10;;;;;;;14.82;100.00;93344.69;5032583;28;20034;-78
2023/10/03 01:45:25;;;;;;;35.60;22.55;;;;;;;14.81;100.00;93349.16;5017007;28;20505;-81
2023/10/03 01:47:51;;;;;;;37.67;22.38;;;;;;;14.81;100.00;93338.63;5029990;28;20516;-80
2023/10/03 01:50:19;;;;;;;36.40;22.17;;;;;;;14.78;100.00;93329.44;5016274;28;20329;-79
2023/10/03 01:52:46;;;;;;;32.85;23.20;;;;;;;14.78;100.00;93332.06;5016476;28;20026;-80
2023/10/03 01:55:14;;;;;;;31.98;21.80;;;;;;;14.75;100.00;93335.31;5016356;28;20116;-81
2023/10/03 01:57:41;;;;;;;33.90;23.33;;;;;;;14.74;100.00;93322.41;5032063;28;20077;-81
2023/10/03 02:00:25;;;;;;;37.47;21.88;;;;;;;14.75;100.00;93324.00;5021397;28;20042;-81
2023/10/03 02:03:05;;;;;;;26.73;18.65;;;;;;;14.71;100.00;93325.63;5027006;28;20101;-81
2023/10/03 02:05:38;;;;;;;27.48;16.60;;;;;;;14.68;100.00;93318.28;5016653;28;20124;-80
2023/10/03 02:08:12;;;;;;;25.27;16.40;;;;;;;14.61;100.00;93313.41;5015523;28;20061;-79
2023/10/03 02:10:39;;;;;;;28.30;17.48;;;;;;;14.63;100.00;93327.06;5022084;28;20029;-81
2023/10/03 02:13:12;;;;;;;30.40;18.42;;;;;;;14.62;100.00;93322.88;5012767;28;20034;-80
2023/10/03 02:15:38;;;;;;;28.30;19.35;;;;;;;14.61;100.00;93313.41;5015645;28;20049;-80
2023/10/03 02:18:05;;;;;;;29.42;19.63;;;;;;;14.64;100.00;93317.34;5017298;28;20030;-81
2023/10/03 02:20:38;;;;;;;30.80;19.33;;;;;;;14.59;100.00;93310.31;5015868;28;20045;-80
2023/10/03 02:23:09;;;;;;;27.88;18.88;;;;;;;14.58;100.00;93311.34;5016257;28;20042;-80
2023/10/03 02:25:37;;;;;;;33.65;19.13;;;;;;;14.58;100.00;93308.72;5014924;28;20084;-80
2023/10/03 02:28:05;;;;;;;33.45;20.65;;;;;;;14.57;100.00;93307.19;5014833;28;20080;-80
2023/10/03 02:30:31;;;;;;;31.65;20.42;;;;;;;14.58;100.00;93303.47;5016539;28;20498;-79
2023/10/03 02:33:03;;;;;;;31.05;20.02;;;;;;;14.58;100.00;93304.22;5031884;28;20040;-80
2023/10/03 02:35:30;;;;;;;27.92;19.00;;;;;;;14.57;100.00;93292.16;5017511;28;20052;-80
2023/10/03 02:37:56;;;;;;;27.73;18.50;;;;;;;14.59;100.00;93302.41;5015827;28;20527;-80
2023/10/03 02:40:28;;;;;;;24.98;17.33;;;;;;;14.61;100.00;93291.56;5015438;28;20100;-80
2023/10/03 02:42:54;;;;;;;24.88;15.73;;;;;;;14.57;100.00;93291.38;5018447;28;20029;-79
2023/10/03 02:45:23;;;;;;;28.35;16.45;;;;;;;14.57;100.00;93294.00;5015266;28;20061;-80
2023/10/03 02:47:55;;;;;;;25.00;15.98;;;;;;;14.57;100.00;93294.00;5015562;28;20037;-81
2023/10/03 02:50:26;;;;;;;23.95;15.52;;;;;;;14.54;100.00;93284.00;5015269;28;20061;-81
2023/10/03 02:52:56;;;;;;;28.52;14.32;;;;;;;14.51;100.00;93281.97;5032345;28;20042;-80
2023/10/03 02:55:22;;;;;;;28.70;14.80;;;;;;;14.50;100.00;93283.81;5016139;28;20076;-81
2023/10/03 02:57:48;;;;;;;21.20;14.13;;;;;;;14.51;100.00;93289.84;5031036;28;20034;-80
2023/10/03 03:00:15;;;;;;;22.63;14.27;;;;;;;14.48;100.00;93285.94;4999302;28;20041;-80
2023/10/03 03:02:46;;;;;;;23.63;15.20;;;;;;;14.47;100.00;93281.75;5016097;28;20038;-80
2023/10/03 03:05:17;;;;;;;22.52;14.13;;;;;;;14.46;100.00;93279.41;5026793;28;20185;-80
2023/10/03 03:07:48;;;;;;;22.08;14.90;;;;;;;14.43;100.00;93270.22;5031411;28;20033;-80
2023/10/03 03:10:17;;;;;;;23.30;14.88;;;;;;;14.45;100.00;93277.84;5015166;28;20061;-79
2023/10/03 03:12:44;;;;;;;26.17;15.98;;;;;;;14.44;100.00;93281.56;5014787;28;20026;-80
2023/10/03 03:15:24;;;;;;;22.92;15.35;;;;;;;14.42;100.00;93267.88;5006719;28;20046;-80
2023/10/03 03:17:50;;;;;;;24.33;14.90;;;;;;;14.40;100.00;93270.81;5016410;28;20046;-79
2023/10/03 03:20:36;;;;;;;23.63;14.95;;;;;;;14.40;100.00;93272.66;5016183;28;20053;-79
2023/10/03 03:23:02;;;;;;;24.30;15.60;;;;;;;14.42;100.00;93275.78;5015639;28;20054;-79
2023/10/03 03:25:38;;;;;;;21.80;15.02;;;;;;;14.42;100.00;93273.16;5015590;28;20485;-80
2023/10/03 03:28:13;;;;;;;22.40;15.18;;;;;;;14.35;100.00;93261.16;5016866;28;20066;-79
2023/10/03 03:30:46;;;;;;;25.20;15.27;;;;;;;14.35;100.00;93269.03;5014952;28;20042;-80
2023/10/03 03:33:14;;;;;;;23.35;15.63;;;;;;;14.33;100.00;93265.16;5030765;28;20109;-80
2023/10/03 03:35:40;;;;;;;25.05;16.58;;;;;;;14.32;100.00;93258.28;5015810;28;20022;-81
2023/10/03 03:38:07;;;;;;;24.73;15.90;;;;;;;14.29;100.00;93264.94;5010511;28;20168;-80
2023/10/03 03:40:34;;;;;;;26.17;15.55;;;;;;;14.26;100.00;93262.09;5017933;28;20034;-80
2023/10/03 03:43:05;;;;;;;23.98;15.70;;;;;;;14.23;100.00;93260.84;5012163;28;20030;-81
2023/10/03 03:45:31;;;;;;;26.40;15.57;;;;;;;14.20;100.00;93264.03;5016443;28;20069;-80
2023/10/03 03:47:57;;;;;;;23.23;16.08;;;;;;;14.19;100.00;93259.84;5013644;28;20037;-81
2023/10/03 03:50:23;;;;;;;25.20;16.65;;;;;;;14.14;100.00;93260.72;5015937;28;20041;-81
2023/10/03 03:52:49;;;;;;;25.88;16.90;;;;;;;14.15;100.00;93258.84;5016033;28;20474;-81
2023/10/03 03:55:17;;;;;;;23.23;16.48;;;;;;;14.11;100.00;93257.88;5015384;28;20061;-81
2023/10/03 03:57:43;;;;;;;26.83;16.13;;;;;;;14.14;100.00;93258.09;5015505;28;20445;-81
2023/10/03 04:00:12;;;;;;;27.52;16.38;;;;;;;14.14;100.00;93263.34;5023057;28;20050;-81
2023/10/03 04:02:38;;;;;;;26.20;15.93;;;;;;;14.13;100.00;93263.63;5015442;28;20026;-80
2023/10/03 04:05:07;;;;;;;25.25;15.93;;;;;;;14.08;100.00;93255.81;5015145;28;20513;-80
2023/10/03 04:07:38;;;;;;;25.10;16.15;;;;;;;14.10;100.00;93257.09;5007343;28;20116;-79
2023/10/03 04:10:08;;;;;;;28.33;16.88;;;;;;;14.08;100.00;93253.97;5009755;28;20121;-80
2023/10/03 04:12:41;;;;;;;23.60;16.08;;;;;;;14.09;100.00;93252.88;5026008;28;20047;-80
2023/10/03 04:15:14;;;;;;;28.55;16.35;;;;;;;14.08;100.00;93259.22;5012127;28;20042;-80
2023/10/03 04:17:40;;;;;;;26.85;17.42;;;;;;;14.07;100.00;93251.63;5014678;28;20038;-80
2023/10/03 04:20:53;;;;;;;25.10;15.82;;;;;;;14.07;100.00;93252.41;5014334;28;20532;-80
2023/10/03 04:22:53;;;;;;;30.17;17.67;;;;;;;14.07;100.00;93252.41;4998749;28;20533;-80
2023/10/03 04:25:20;;;;;;;26.10;16.42;;;;;;;14.08;100.00;93247.94;4998751;28;20030;-80
2023/10/03 04:27:47;;;;;;;24.27;16.73;;;;;;;14.08;100.00;93247.94;5014192;28;20448;-81
2023/10/03 04:30:14;;;;;;;32.28;17.38;;;;;;;14.05;100.00;93248.47;5011407;28;20036;-79
2023/10/03 04:32:41;;;;;;;22.95;15.65;;;;;;;14.05;100.00;93243.22;5010686;28;20029;-80
2023/10/03 04:35:11;;;;;;;29.27;16.38;;;;;;;14.03;100.00;93246.16;5012005;28;20476;-82
2023/10/03 04:37:39;;;;;;;25.08;16.08;;;;;;;14.02;100.00;93233.28;5009083;28;20405;-79
2023/10/03 04:40:15;;;;;;;23.67;16.55;;;;;;;13.99;100.00;93239.13;5013529;28;20446;-79
2023/10/03 04:42:44;;;;;;;30.25;15.90;;;;;;;14.00;100.00;93240.69;5007025;28;20560;-80
2023/10/03 04:45:11;;;;;;;26.55;16.48;;;;;;;14.00;100.00;93238.03;5013308;28;20037;-79
2023/10/03 04:47:37;;;;;;;23.45;15.48;;;;;;;13.99;100.00;93244.41;5026425;28;20425;-81
2023/10/03 04:50:03;;;;;;;27.30;15.98;;;;;;;13.99;100.00;93244.41;5013529;28;20041;-80
2023/10/03 04:52:29;;;;;;;24.17;15.75;;;;;;;13.98;100.00;93240.19;5029954;28;20092;-80
2023/10/03 04:54:55;;;;;;;22.17;15.02;;;;;;;13.99;100.00;93244.41;5014278;28;20033;-80
2023/10/03 04:57:20;;;;;;;23.35;15.68;;;;;;;13.99;100.00;93234.63;5014694;28;20041;-81
2023/10/03 04:59:47;;;;;;;26.35;15.88;;;;;;;13.98;100.00;93237.56;5013904;28;20033;-79
2023/10/03 05:02:13;;;;;;;25.17;16.33;;;;;;;13.96;100.00;93229.97;5012228;28;20030;-81
2023/10/03 05:04:40;;;;;;;30.38;16.52;;;;;;;13.99;100.00;93233.88;5011441;28;20049;-80
2023/10/03 05:07:06;;;;;;;27.00;16.23;;;;;;;13.98;100.00;93234.91;5012643;28;20033;-79
2023/10/03 05:09:33;;;;;;;25.02;16.60;;;;;;;14.00;100.00;93230.16;5011981;28;20398;-80
2023/10/03 05:11:58;;;;;;;25.10;17.08;;;;;;;14.00;100.00;93230.16;5013566;28;20049;-81
2023/10/03 05:14:24;;;;;;;32.75;17.10;;;;;;;14.01;100.00;93234.34;5013884;28;20034;-81
2023/10/03 05:16:50;;;;;;;24.45;15.68;;;;;;;14.01;100.00;93247.53;5011601;28;20464;-80
2023/10/03 05:19:17;;;;;;;22.33;14.45;;;;;;;13.98;100.00;93237.56;5011494;28;20057;-81
2023/10/03 05:21:44;;;;;;;24.38;14.73;;;;;;;13.97;100.00;93239.41;4995805;28;20065;-79
2023/10/03 05:24:14;;;;;;;22.77;15.57;;;;;;;13.95;100.00;93244.94;5021543;28;20405;-80
2023/10/03 05:26:41;;;;;;;24.50;15.23;;;;;;;13.95;100.00;93244.94;5013616;28;20026;-81
2023/10/03 05:29:07;;;;;;;23.55;15.52;;;;;;;13.92;100.00;93239.50;5014764;28;20030;-78
2023/10/03 05:31:40;;;;;;;25.15;16.08;;;;;;;13.95;100.00;93244.94;5013006;28;20045;-80
2023/10/03 05:34:07;;;;;;;24.60;15.88;;;;;;;13.99;100.00;93245.16;5013371;28;20128;-80
2023/10/03 05:36:34;;;;;;;23.73;14.98;;;;;;;14.01;100.00;93242.25;5013665;28;20410;-79
2023/10/03 05:39:00;;;;;;;26.95;15.65;;;;;;;13.99;100.00;93239.91;5027289;28;20041;-79
2023/10/03 05:41:26;;;;;;;23.15;15.13;;;;;;;14.05;100.00;93243.22;5011129;28;20358;-78
2023/10/03 05:43:54;;;;;;;26.70;16.00;;;;;;;14.15;100.00;93243.06;5013805;28;20040;-79
2023/10/03 05:46:20;;;;;;;24.33;16.55;;;;;;;14.28;100.00;93236.28;5005816;28;20030;-79
2023/10/03 05:48:46;;;;;;;25.98;16.13;;;;;;;14.44;100.00;93228.88;5012901;28;20062;-78
2023/10/03 05:51:12;;;;;;;23.02;14.57;;;;;;;14.60;100.00;93238.09;5012589;28;20485;-80
2023/10/03 05:53:40;;;;;;;24.27;14.45;;;;;;;14.80;100.00;93236.13;5011888;28;20046;-79
2023/10/03 05:56:06;;;;;;;29.92;14.35;;;;;;;15.03;100.00;93242.28;5013305;28;20029;-79
2023/10/03 05:58:32;;;;;;;21.38;13.73;;;;;;;15.27;100.00;93240.19;5012850;28;20092;-80
2023/10/03 06:00:59;;;;;;;21.90;14.60;;;;;;;15.53;100.00;93242.25;5012885;28;20030;-80
2023/10/03 06:03:25;;;;;;;23.10;14.05;;;;;;;15.80;100.00;93247.47;5006569;28;20470;-79
2023/10/03 06:05:51;;;;;;;22.77;13.82;;;;;;;16.06;100.00;93232.91;5029665;28;20132;-80
2023/10/03 06:08:17;;;;;;;26.75;13.60;;;;;;;16.32;100.00;93236.44;5014568;28;20604;-80
2023/10/03 06:10:43;;;;;;;23.58;13.15;;;;;;;16.65;100.00;93233.50;5004840;28;20037;-80
2023/10/03 06:13:11;;;;;;;22.95;12.85;;;;;;;17.01;100.00;93229.91;5012727;28;20116;-79
2023/10/03 06:15:42;;;;;;;21.58;13.52;;;;;;;17.36;100.00;93236.06;5031004;28;20489;-79
2023/10/03 06:18:08;;;;;;;21.45;15.23;;;;;;;17.71;100.00;93233.41;5016603;28;20378;-79
2023/10/03 06:20:34;;;;;;;24.10;14.98;;;;;;;18.00;100.00;93243.41;5008119;28;20445;-80
2023/10/03 06:23:02;;;;;;;22.52;13.52;;;;;;;17.80;100.00;93247.44;5006687;28;20034;-79
2023/10/03 06:25:29;;;;;;;21.67;13.63;;;;;;;17.85;100.00;93244.66;5014447;28;20125;-79
2023/10/03 06:27:54;;;;;;;19.30;13.20;;;;;;;18.39;100.00;93254.09;5024256;28;20045;-79
2023/10/03 06:30:20;;;;;;;21.67;13.73;;;;;;;18.84;100.00;93259.72;5006957;28;20026;-80
2023/10/03 06:32:45;;;;;;;22.00;13.40;;;;;;;19.20;100.00;93260.34;4997678;28;20045;-80
2023/10/03 06:35:12;;;;;;;21.67;13.82;;;;;;;19.53;100.00;93268.44;5013319;28;20481;-80
2023/10/03 06:37:38;;;;;;;20.73;14.13;;;;;;;19.90;100.00;93261.47;5008225;28;20064;-80
2023/10/03 06:40:08;;;;;;;24.60;14.38;;;;;;;20.06;100.00;93261.66;5008085;28;20489;-81
2023/10/03 06:42:35;;;;;;;21.55;14.85;;;;;;;19.93;100.00;93260.84;5008136;28;20056;-80
2023/10/03 06:45:05;;;;;;;23.33;14.43;;;;;;;20.21;100.00;93273.56;5015601;28;20116;-81
2023/10/03 06:47:33;;;;;;;23.08;14.75;;;;;;;20.44;100.00;93268.63;5023121;28;20079;-80
2023/10/03 06:49:59;;;;;;;23.50;15.75;;;;;;;20.90;100.00;93266.78;5017096;28;20026;-80
2023/10/03 06:52:25;;;;;;;22.00;16.17;;;;;;;21.28;100.00;93273.66;5015306;28;20424;-81
2023/10/03 06:54:51;;;;;;;30.27;16.70;;;;;;;21.67;100.00;93263.44;5015291;28;20105;-81
2023/10/03 06:57:16;;;;;;;23.02;16.73;;;;;;;21.96;100.00;93253.59;4997364;28;20057;-80
2023/10/03 06:59:42;;;;;;;24.13;17.27;;;;;;;22.01;100.00;93258.69;5007509;28;20117;-80
2023/10/03 07:02:08;;;;;;;19.40;12.50;;;;;;;22.53;100.00;93263.16;5022457;28;20089;-79
2023/10/03 07:04:34;;;;;;;22.63;12.63;;;;;;;22.45;100.00;93258.75;5027447;28;20047;-80
2023/10/03 07:06:59;;;;;;;18.55;12.93;;;;;;;22.63;100.00;93257.31;5007680;28;20034;-80
2023/10/03 07:09:25;;;;;;;18.25;12.82;;;;;;;22.36;100.00;93260.78;4996928;28;20418;-80
2023/10/03 07:11:52;;;;;;;19.77;13.07;;;;;;;22.76;100.00;93259.91;5004220;28;20084;-80
2023/10/03 07:14:18;;;;;;;20.50;13.98;;;;;;;22.45;100.00;93264.09;5027693;28;20041;-80
2023/10/03 07:16:46;;;;;;;24.00;14.10;;;;;;;22.09;100.00;93263.09;5015341;28;20416;-80
2023/10/03 07:19:14;;;;;;;24.13;15.80;;;;;;;21.87;100.00;93266.28;5015549;28;20072;-80
2023/10/03 07:21:40;;;;;;;24.30;15.45;;;;;;;21.80;100.00;93261.53;5014897;28;20120;-79
2023/10/03 07:24:06;;;;;;;21.45;14.80;;;;;;;22.27;100.00;93257.50;5015495;28;20046;-81
2023/10/03 07:26:32;;;;;;;22.65;15.70;;;;;;;22.45;100.00;93261.44;5014814;28;20022;-80
2023/10/03 07:29:00;;;;;;;23.88;15.43;;;;;;;22.52;100.00;93258.94;5030550;28;20509;-81
2023/10/03 07:31:25;;;;;;;25.30;14.85;;;;;;;22.62;100.00;93255.75;4997334;28;20069;-81
2023/10/03 07:33:52;;;;;;;24.15;15.15;;;;;;;22.71;100.00;93257.50;5008078;28;20034;-79
2023/10/03 07:36:17;;;;;;;26.33;12.90;;;;;;;22.35;100.00;93270.69;5006067;28;20034;-80
2023/10/03 07:38:45;;;;;;;21.05;12.95;;;;;;;22.00;100.00;93265.13;5019062;28;20050;-81
2023/10/03 07:41:15;;;;;;;23.60;12.77;;;;;;;22.28;100.00;93267.06;5020516;28;20027;-81
2023/10/03 07:43:41;;;;;;;19.33;11.52;;;;;;;22.06;100.00;93260.31;5016431;28;20047;-80
2023/10/03 07:46:07;;;;;;;17.95;11.70;;;;;;;21.99;100.00;93269.66;5015675;28;20229;-80
2023/10/03 07:48:33;;;;;;;18.08;11.45;;;;;;;22.67;100.00;93276.06;5014361;28;20061;-81
2023/10/03 07:50:58;;;;;;;20.63;11.93;;;;;;;22.49;100.00;93264.94;5016001;28;20516;-80
2023/10/03 07:53:29;;;;;;;17.05;12.15;;;;;;;22.18;100.00;93271.72;5016296;28;20111;-80
2023/10/03 07:55:56;;;;;;;20.20;12.20;;;;;;;21.46;100.00;93270.78;5000487;28;20043;-81
2023/10/03 07:58:22;;;;;;;20.05;12.68;;;;;;;20.81;100.00;93276.75;5021876;28;20117;-79
2023/10/03 08:00:49;;;;;;;18.10;12.50;;;;;;;20.89;100.00;93277.75;5014332;28;20109;-80
2023/10/03 08:03:15;;;;;;;21.23;12.70;;;;;;;20.84;100.00;93280.63;5014052;28;20594;-81
2023/10/03 08:05:41;;;;;;;21.17;12.52;;;;;;;21.10;100.00;93277.66;5014980;28;20082;-80
2023/10/03 08:08:07;;;;;;;22.13;12.93;;;;;;;20.98;100.00;93281.06;5014539;28;20057;-80
2023/10/03 08:10:33;;;;;;;21.00;13.18;;;;;;;20.90;100.00;93274.00;5013307;28;20033;-79
2023/10/03 08:12:59;;;;;;;20.20;12.95;;;;;;;20.80;100.00;93275.19;5029924;28;20042;-80
2023/10/03 08:15:31;;;;;;;22.48;13.73;;;;;;;20.64;100.00;93266.28;5015911;28;20050;-80
2023/10/03 08:17:57;;;;;;;;;;;;;;;20.49;100.00;93286.28;4999744;28;20536;-81
2023/10/03 08:20:24;;;;;;;19.50;12.40;;;;;;;20.57;100.00;93274.81;5011526;28;19909;-82
2023/10/03 08:22:55;;;;;;;22.20;13.88;;;;;;;20.05;100.00;93276.03;4995350;28;20325;-82
2023/10/03 08:25:22;;;;;;;20.55;14.23;;;;;;;20.07;100.00;93287.13;5015423;28;20038;-85
2023/10/03 08:27:52;;;;;;;20.70;13.70;;;;;;;20.26;100.00;93280.56;5018568;28;20030;-83
2023/10/03 08:30:29;;;;;;;22.05;13.27;;;;;;;20.37;100.00;93285.13;5027222;28;20030;-83
2023/10/03 08:33:00;;;;;;;26.65;13.80;;;;;;;20.54;100.00;93286.84;5012814;28;20041;-83
2023/10/03 08:35:37;;;;;;;22.50;12.55;;;;;;;20.84;100.00;93285.94;5010549;28;20387;-83
2023/10/03 08:38:11;;;;;;;25.83;13.30;;;;;;;20.76;100.00;93285.72;5006806;28;20034;-82
2023/10/03 08:40:39;;;;;;;21.42;13.45;;;;;;;20.75;100.00;93283.38;5013882;28;20128;-84
2023/10/03 08:43:10;;;;;;;21.40;13.13;;;;;;;20.79;100.00;93284.28;5006967;28;20022;-82
2023/10/03 08:45:52;;;;;;;21.20;14.55;;;;;;;21.02;100.00;93278.53;5024049;28;20087;-83
2023/10/03 08:48:27;;;;;;;24.80;14.70;;;;;;;21.06;100.00;93277.53;5009005;28;20421;-82
2023/10/03 08:50:58;;;;;;;22.05;14.20;;;;;;;21.09;100.00;93278.75;5010088;28;20111;-82
2023/10/03 08:53:28;;;;;;;22.90;13.10;;;;;;;21.32;100.00;93274.56;5027631;28;20413;-83
2023/10/03 08:55:58;;;;;;;23.48;14.13;;;;;;;21.22;100.00;93275.00;5012529;28;20386;-83
2023/10/03 08:58:26;;;;;;;23.70;14.23;;;;;;;21.24;100.00;93280.75;5011865;28;20041;-82
2023/10/03 09:01:01;;;;;;;19.65;13.30;;;;;;;21.10;100.00;93273.13;5012138;28;20045;-83
2023/10/03 09:06:19;;;;;;;25.23;14.50;;;;;;;21.63;100.00;93273.97;5012029;28;20038;-83
2023/10/03 09:09:07;;;;;;;20.73;14.25;;;;;;;21.73;100.00;93278.09;5012100;28;20425;-83
2023/10/03 09:11:41;;;;;;;29.27;15.20;;;;;;;22.07;100.00;93276.00;5010006;28;20045;-83
2023/10/03 09:14:08;;;;;;;21.55;13.90;;;;;;;22.23;100.00;93286.75;5013733;28;20036;-82
2023/10/03 09:16:38;;;;;;;25.60;14.43;;;;;;;22.20;100.00;93276.72;5011881;28;20021;-83
2023/10/03 09:19:13;;;;;;;25.67;14.18;;;;;;;22.13;100.00;93277.28;5019884;28;20053;-83
2023/10/03 09:21:39;;;;;;;21.20;14.18;;;;;;;22.47;100.00;93269.06;5013035;28;20033;-83
2023/10/03 09:24:20;;;;;;;23.70;15.30;;;;;;;22.25;100.00;93271.19;5012885;28;20038;-82
2023/10/03 09:26:46;;;;;;;23.52;14.13;;;;;;;22.39;100.00;93270.78;5008463;28;21135;-83
2023/10/03 09:29:18;;;;;;;21.63;13.45;;;;;;;22.31;100.00;93275.13;5010029;28;20057;-82
2023/10/03 09:31:48;;;;;;;21.75;13.95;;;;;;;22.28;100.00;93269.72;5027586;28;20045;-83
2023/10/03 09:34:17;;;;;;;22.02;14.07;;;;;;;22.43;100.00;93266.31;5009625;28;20053;-81
2023/10/03 09:36:43;;;;;;;21.33;13.48;;;;;;;22.33;100.00;93262.25;5009523;28;20040;-81
2023/10/03 09:39:26;;;;;;;19.55;12.10;;;;;;;22.47;100.00;93261.84;5016466;28;20440;-82
2023/10/03 09:41:57;;;;;;;21.25;13.52;;;;;;;22.44;100.00;93252.63;5015867;28;20141;-81
2023/10/03 09:44:29;;;;;;;21.85;13.18;;;;;;;22.37;100.00;93262.34;5014900;28;20382;-82
2023/10/03 09:47:03;;;;;;;21.85;13.18;;;;;;;22.20;100.00;93250.84;5014587;28;20044;-81
2023/10/03 09:49:38;;;;;;;22.23;12.57;;;;;;;22.15;100.00;93251.06;5015147;28;20157;-82
2023/10/03 09:52:22;;;;;;;19.80;11.90;;;;;;;22.40;100.00;93250.97;5016980;28;20037;-82
2023/10/03 09:54:53;;;;;;;23.95;12.52;;;;;;;22.36;100.00;93247.44;5004766;28;20533;-82
2023/10/03 09:57:21;;;;;;;21.80;13.48;;;;;;;22.35;100.00;93253.91;5012929;28;20065;-82
2023/10/03 09:59:48;;;;;;;22.70;13.10;;;;;;;22.63;100.00;93248.53;5012842;28;20034;-83
2023/10/03 10:02:16;;;;;;;18.50;12.77;;;;;;;22.44;100.00;93249.19;5015546;28;20045;-82
2023/10/03 10:04:50;;;;;;;21.45;12.80;;;;;;;22.53;100.00;93249.03;5012872;28;20135;-83
2023/10/03 10:07:33;;;;;;;20.17;13.68;;;;;;;22.53;100.00;93246.38;5013584;28;20033;-82
2023/10/03 10:10:07;;;;;;;19.30;13.25;;;;;;;22.47;100.00;93242.38;5014394;28;20033;-82
2023/10/03 10:12:37;;;;;;;21.08;12.20;;;;;;;22.37;100.00;93238.34;5015425;28;20112;-83
2023/10/03 10:17:54;;;;;;;21.17;12.93;;;;;;;22.49;100.00;93238.25;5007864;28;20044;-82
2023/10/03 10:20:27;;;;;;;20.55;13.02;;;;;;;22.48;100.00;93243.97;5013354;28;20112;-81
2023/10/03 10:23:02;;;;;;;19.38;13.43;;;;;;;22.40;100.00;93242.97;5014236;28;20052;-83
2023/10/03 10:25:51;;;;;;;21.67;12.73;;;;;;;21.91;100.00;93237.81;5016529;28;20037;-84
2023/10/03 10:28:26;;;;;;;17.17;12.25;;;;;;;21.57;100.00;93232.72;5013401;28;20042;-82
2023/10/03 10:31:10;;;;;;;23.25;15.00;;;;;;;21.69;100.00;93241.78;5030545;28;20100;-83
2023/10/03 10:33:37;;;;;;;25.92;14.60;;;;;;;21.94;100.00;93237.16;5014255;28;20061;-83
2023/10/03 10:36:03;;;;;;;20.20;14.13;;;;;;;22.40;100.00;93235.78;5013426;28;20036;-83
2023/10/03 10:38:32;;;;;;;25.35;14.75;;;;;;;22.62;100.00;93236.31;5016988;28;20104;-83
2023/10/03 10:41:22;;;;;;;21.10;14.13;;;;;;;22.33;100.00;93234.81;5018769;28;20053;-83
2023/10/03 10:44:06;;;;;;;21.33;14.48;;;;;;;22.47;100.00;93235.16;5012461;28;20505;-83
2023/10/03 10:46:33;;;;;;;21.65;13.82;;;;;;;22.21;100.00;93232.94;5026844;28;20033;-83
2023/10/03 10:48:58;;;;;;;21.98;14.68;;;;;;;21.91;100.00;93240.50;5011238;28;20077;-83
2023/10/03 10:51:25;;;;;;;24.25;13.32;;;;;;;21.38;100.00;93235.16;5016936;28;20042;-82
2023/10/03 10:53:51;;;;;;;19.83;13.07;;;;;;;21.05;100.00;93228.06;5018824;28;20033;-82
2023/10/03 10:56:17;;;;;;;21.23;13.32;;;;;;;21.19;100.00;93225.84;5008872;28;20513;-82
2023/10/03 10:58:50;;;;;;;23.17;14.23;;;;;;;21.67;100.00;93218.16;5028802;28;20128;-82
2023/10/03 11:01:18;;;;;;;24.77;16.77;;;;;;;21.76;100.00;93210.03;5008469;28;20690;-82
2023/10/03 11:03:44;;;;;;;26.13;16.55;;;;;;;22.00;100.00;93219.81;5014356;28;20029;-81
2023/10/03 11:06:15;;;;;;;24.75;16.35;;;;;;;22.31;100.00;93215.69;5028235;28;20041;-82
2023/10/03 11:08:50;;;;;;;22.33;14.52;;;;;;;22.91;100.00;93211.09;5014361;28;20033;-83
2023/10/03 11:11:18;;;;;;;26.33;16.50;;;;;;;23.02;100.00;93214.81;5010817;28;20048;-81
2023/10/03 11:13:48;;;;;;;23.33;16.73;;;;;;;23.18;100.00;93216.69;5011141;28;20069;-83
2023/10/03 11:16:25;;;;;;;23.15;14.15;;;;;;;23.30;100.00;93216.56;5011724;28;20092;-82
2023/10/03 11:18:52;;;;;;;19.63;12.88;;;;;;;23.40;100.00;93200.00;5007703;28;20034;-83
2023/10/03 11:21:18;;;;;;;23.52;14.05;;;;;;;23.17;100.00;93210.59;5014406;28;20414;-82
2023/10/03 11:24:22;;;;;;;22.55;14.27;;;;;;;22.57;100.00;93201.88;5013855;28;20068;-82
2023/10/03 11:26:57;;;;;;;23.67;14.50;;;;;;;22.56;100.00;93194.97;4967985;28;20057;-81